Island Mist — WDH9725 — position and weather

sailwx.info

Track history (hours):
 
Tides and Currents Weather Stations Pressure Air Temp Water Temp Dewpoint Dewpoint Depression Visibility Wind Speed Wind Dir Waves Ship Positions

Island Mist

Owner: Island Tug & Barge Co., Seattle, WA. More information available from US FCC via Universal Licensing System and Coast Guard Vessel Documentation Center.

Last reported at 2018-Apr-19 13:15 UTC. Time now 2018-Apr-19 21:05 UTC.
Position N 49°41' W 124°34'.

Length 30 m; draft 3 m.

Type: Towing. MMSI: 367670970.

Date/timePositionNaut miles runAvg speedWind from/ knotsBaromVisibWave heightAir tempDewpointWater temp
2018-Apr-19 13:15N 49°41' W 124°34'0 0.3
2018-Apr-19 12:59N 49°41' W 124°34'2 3.2
2018-Apr-19 12:27N 49°40' W 124°33'2 3.7
2018-Apr-19 12:00N 49°39' W 124°31'2 3.8
2018-Apr-19 11:30N 49°37' W 124°29'2 4.0
2018-Apr-19 11:00N 49°36' W 124°27'2 4.3
2018-Apr-19 10:29N 49°35' W 124°24'12 5.3
2018-Apr-19 08:16N 49°29' W 124°08'2 5.9
2018-Apr-19 07:54N 49°27' W 124°05'10 6.5
2018-Apr-19 06:18N 49°21' W 123°53'2 7.0
2018-Apr-19 05:59N 49°19' W 123°51'5 6.9
2018-Apr-19 05:17N 49°16' W 123°45'2 6.8
2018-Apr-19 05:00N 49°15' W 123°42'4 6.9
2018-Apr-19 04:26N 49°13' W 123°37'3 6.8
2018-Apr-19 03:59N 49°11' W 123°34'3 6.8
2018-Apr-19 03:29N 49°09' W 123°29'3 7.2
2018-Apr-19 03:00N 49°07' W 123°25'4 7.3
2018-Apr-19 02:29N 49°05' W 123°21'4 7.3
2018-Apr-19 01:58N 49°02' W 123°17'4 7.8
2018-Apr-19 01:26N 48°59' W 123°12'3 7.7
2018-Apr-19 01:00N 48°57' W 123°08'10 7.6
2018-Apr-18 23:44N 48°51' W 122°57'8 7.1
2018-Apr-18 22:40N 48°46' W 122°48'2 7.1
2018-Apr-18 22:22N 48°45' W 122°45'3 8.0
2018-Apr-18 22:00N 48°42' W 122°43'3 6.7
2018-Apr-18 21:30N 48°39' W 122°43'3 6.1
2018-Apr-18 21:00N 48°36' W 122°45'3 6.0
2018-Apr-18 20:30N 48°33' W 122°45'3 5.0
2018-Apr-18 20:00N 48°31' W 122°44'2 4.7
2018-Apr-18 19:30N 48°28' W 122°44'2 3.9
2018-Apr-18 19:00N 48°26' W 122°44'3 4.9
2018-Apr-18 18:23N 48°23' W 122°44'2 5.8
2018-Apr-18 18:00N 48°21' W 122°45'26 8.0
2018-Apr-18 14:46N 47°57' W 122°32'2 8.8
2018-Apr-18 14:31N 47°55' W 122°29'4 8.6
2018-Apr-18 14:00N 47°51' W 122°27'4 7.6
2018-Apr-18 13:30N 47°47' W 122°26'4 7.5
2018-Apr-18 13:00N 47°44' W 122°26'4 7.1
2018-Apr-18 12:30N 47°40' W 122°27'3 6.8
2018-Apr-18 12:00N 47°37' W 122°24'3 5.8
2018-Apr-18 11:30N 47°35' W 122°22'1 1.9
2018-Apr-18 11:00N 47°34' W 122°21'0 0.7
2018-Apr-18 10:30N 47°34' W 122°21'1 1.0
2018-Apr-18 10:00N 47°33' W 122°21'1 1.9
2018-Apr-18 09:30N 47°34' W 122°21'0 0.6
2018-Apr-18 09:00N 47°34' W 122°21'1 1.8
2018-Apr-18 08:30N 47°35' W 122°21'0 0.0
2018-Apr-18 08:00N 47°35' W 122°21'1 1.9
2018-Apr-18 07:30N 47°34' W 122°21'1 1.3
2018-Apr-18 07:00N 47°34' W 122°21'0 0.5
2018-Apr-18 06:27N 47°34' W 122°21'0 0.0
2018-Apr-18 05:58N 47°34' W 122°21'0 0.3
2018-Apr-18 05:30N 47°34' W 122°21'1 2.0
2018-Apr-18 05:00N 47°35' W 122°22'2 4.3
2018-Apr-18 04:30N 47°36' W 122°25'3 6.3
2018-Apr-18 04:00N 47°33' W 122°27'3 6.7
2018-Apr-18 03:30N 47°30' W 122°29'3 7.0
2018-Apr-18 03:00N 47°27' W 122°31'3 6.8
2018-Apr-18 02:30N 47°23' W 122°32'3 6.1
2018-Apr-18 02:00N 47°20' W 122°33'2 4.5
2018-Apr-18 01:29N 47°18' W 122°33'1 2.3
2018-Apr-18 01:00N 47°17' W 122°32'1 1.3
2018-Apr-18 00:30N 47°16' W 122°33'0 0.9
2018-Apr-18 00:00N 47°16' W 122°33'0 0.8
2018-Apr-17 23:30N 47°16' W 122°33'0 0.8
2018-Apr-17 23:00N 47°15' W 122°34'1 1.2
2018-Apr-17 22:30N 47°15' W 122°34'2 4.0
2018-Apr-17 22:00N 47°13' W 122°35'3 6.4
2018-Apr-17 21:29N 47°10' W 122°39'2 3.7
2018-Apr-17 20:52N 47°08' W 122°39'0 0.7
2018-Apr-17 20:30N 47°08' W 122°39'0 0.6
2018-Apr-17 20:00N 47°09' W 122°38'0 0.0
2018-Apr-17 19:30N 47°09' W 122°38'0 0.0
2018-Apr-17 19:00N 47°09' W 122°38'0 0.0
2018-Apr-17 18:30N 47°09' W 122°38'0 0.0
2018-Apr-17 17:59N 47°09' W 122°38'0 0.0
2018-Apr-17 17:29N 47°09' W 122°38'0 0.0
2018-Apr-17 17:00N 47°09' W 122°38'1 1.1
2018-Apr-17 16:28N 47°08' W 122°39'1 3.0
2018-Apr-17 16:00N 47°10' W 122°39'1 1.7
2018-Apr-17 15:30N 47°10' W 122°38'1 1.5
2018-Apr-17 15:00N 47°11' W 122°38'1 2.6
2018-Apr-17 14:30N 47°12' W 122°36'1 2.8
2018-Apr-17 14:00N 47°13' W 122°35'2 4.0
2018-Apr-17 13:30N 47°15' W 122°34'3 5.2
2018-Apr-17 13:00N 47°17' W 122°32'3 6.7
2018-Apr-17 12:30N 47°20' W 122°33'3 5.5
2018-Apr-17 12:00N 47°23' W 122°32'3 5.7
2018-Apr-17 11:30N 47°26' W 122°32'3 5.8
2018-Apr-17 11:00N 47°29' W 122°30'3 5.7
2018-Apr-17 10:30N 47°31' W 122°29'3 6.3
2018-Apr-17 10:00N 47°34' W 122°26'3 6.1
2018-Apr-17 09:30N 47°36' W 122°23'1 2.5
2018-Apr-17 09:00N 47°35' W 122°22'0 1.0
2018-Apr-17 08:30N 47°35' W 122°22'0 0.1
2018-Apr-17 03:24N 47°34' W 122°21'1 1.3
2018-Apr-17 02:56N 47°34' W 122°21'1 2.9
2018-Apr-17 02:30N 47°35' W 122°22'1 2.9
2018-Apr-17 02:00N 47°36' W 122°22'1 1.5
2018-Apr-17 01:30N 47°37' W 122°23'2 3.9
2018-Apr-17 01:00N 47°38' W 122°26'2 4.9
2018-Apr-17 00:30N 47°40' W 122°28'2 5.0
2018-Apr-17 00:00N 47°42' W 122°28'3 5.0
2018-Apr-16 23:30N 47°45' W 122°27'3 5.4
2018-Apr-16 23:00N 47°47' W 122°27'3 5.9
2018-Apr-16 22:30N 47°50' W 122°28'3 5.9
2018-Apr-16 22:00N 47°53' W 122°30'4 6.0
2018-Apr-16 21:25N 47°56' W 122°32'3 6.9
2018-Apr-16 20:58N 47°58' W 122°36'3 6.4
2018-Apr-16 20:28N 48°01' W 122°38'18 4.6
2018-Apr-16 16:29N 48°18' W 122°48'3 6.5
2018-Apr-16 15:58N 48°21' W 122°46'3 6.7
2018-Apr-16 15:30N 48°24' W 122°45'4 7.1
2018-Apr-16 15:00N 48°28' W 122°44'4 7.2
2018-Apr-16 14:30N 48°31' W 122°45'3 6.7
2018-Apr-16 14:00N 48°35' W 122°45'3 5.9
2018-Apr-16 13:30N 48°38' W 122°45'3 5.3
2018-Apr-16 13:00N 48°40' W 122°44'3 5.1
2018-Apr-16 12:30N 48°43' W 122°45'2 4.6
2018-Apr-16 11:57N 48°45' W 122°47'2 5.3
2018-Apr-16 11:30N 48°46' W 122°50'4 5.3
2018-Apr-16 10:51N 48°48' W 122°55'2 5.7
2018-Apr-16 10:25N 48°50' W 122°57'4 5.3
2018-Apr-16 09:34N 48°52' W 123°03'1 5.6
2018-Apr-16 09:21N 48°52' W 123°05'2 5.6
2018-Apr-16 09:00N 48°53' W 123°07'5 5.8
2018-Apr-16 08:04N 48°57' W 123°14'2 6.6
2018-Apr-16 07:42N 48°58' W 123°17'1 6.8
2018-Apr-16 07:30N 48°59' W 123°18'4 6.9
2018-Apr-16 06:53N 49°02' W 123°23'3 6.9
2018-Apr-16 06:30N 49°05' W 123°25'4 7.4
2018-Apr-16 05:57N 49°09' W 123°24'3 7.3
2018-Apr-16 05:30N 49°12' W 123°22'3 6.4
2018-Apr-16 05:00N 49°15' W 123°20'2 3.9
2018-Apr-16 04:30N 49°15' W 123°18'2 3.1
2018-Apr-16 04:00N 49°15' W 123°15'0 0.1
2018-Apr-16 03:29N 49°15' W 123°15'0 0.1
2018-Apr-16 03:00N 49°15' W 123°15'0 0.1
2018-Apr-16 02:30N 49°15' W 123°15'0 0.0
2018-Apr-16 01:56N 49°15' W 123°15'0 0.0
2018-Apr-16 01:29N 49°15' W 123°15'0 0.1
2018-Apr-16 00:59N 49°15' W 123°15'0 0.0
2018-Apr-16 00:30N 49°15' W 123°15'0 0.1
2018-Apr-15 23:58N 49°15' W 123°15'0 0.1
2018-Apr-15 23:28N 49°15' W 123°15'0 0.1
2018-Apr-15 23:00N 49°15' W 123°15'0 0.0
2018-Apr-15 22:24N 49°15' W 123°15'0 0.1
2018-Apr-15 22:00N 49°15' W 123°15'0 0.0
2018-Apr-15 21:30N 49°15' W 123°15'0 0.0
2018-Apr-15 20:58N 49°15' W 123°15'0 0.1
2018-Apr-15 20:28N 49°15' W 123°15'0 0.1
2018-Apr-15 20:00N 49°15' W 123°15'0 0.1
2018-Apr-15 19:30N 49°15' W 123°15'0 0.0
2018-Apr-15 18:59N 49°15' W 123°15'0 0.1
2018-Apr-15 18:30N 49°15' W 123°15'0 0.1
2018-Apr-15 17:59N 49°15' W 123°15'0 0.1
2018-Apr-15 17:30N 49°15' W 123°15'0 0.1
2018-Apr-15 17:00N 49°15' W 123°15'0 0.0
2018-Apr-15 16:30N 49°15' W 123°15'0 0.0
2018-Apr-15 16:00N 49°15' W 123°15'0 0.1
2018-Apr-15 15:30N 49°15' W 123°15'0 0.0
2018-Apr-15 14:59N 49°15' W 123°15'0 0.0
2018-Apr-15 14:30N 49°15' W 123°15'0 0.0
2018-Apr-15 14:00N 49°15' W 123°15'0 0.0
2018-Apr-15 13:30N 49°15' W 123°15'0 0.1
2018-Apr-15 13:00N 49°15' W 123°15'0 0.0
2018-Apr-15 12:27N 49°15' W 123°15'0 0.0
2018-Apr-15 11:59N 49°15' W 123°15'0 0.0
2018-Apr-15 11:29N 49°15' W 123°15'0 0.1
2018-Apr-15 11:00N 49°15' W 123°15'2 3.7
2018-Apr-15 10:30N 49°15' W 123°18'3 5.5
2018-Apr-15 10:00N 49°12' W 123°19'3 6.7
2018-Apr-15 09:30N 49°09' W 123°20'4 7.0
2018-Apr-15 08:58N 49°05' W 123°21'4 7.2
2018-Apr-15 08:25N 49°02' W 123°18'4 7.2
2018-Apr-15 07:55N 48°59' W 123°14'3 7.3
2018-Apr-15 07:27N 48°58' W 123°09'10 7.5
2018-Apr-15 06:05N 48°51' W 122°57'1 7.8
2018-Apr-15 06:00N 48°51' W 122°57'6 7.5
2018-Apr-15 05:11N 48°47' W 122°50'1 7.7
2018-Apr-15 05:00N 48°46' W 122°48'4 7.5
2018-Apr-15 04:30N 48°43' W 122°44'3 6.8
2018-Apr-15 04:00N 48°40' W 122°42'3 6.8
2018-Apr-15 03:30N 48°37' W 122°44'3 5.8
2018-Apr-15 03:00N 48°34' W 122°45'3 6.7
2018-Apr-15 02:30N 48°31' W 122°44'4 7.3
2018-Apr-15 02:00N 48°27' W 122°44'31 6.1
2018-Apr-14 20:49N 47°57' W 122°32'2 7.0
2018-Apr-14 20:30N 47°56' W 122°29'4 7.4
2018-Apr-14 20:00N 47°52' W 122°27'4 8.1
2018-Apr-14 19:30N 47°48' W 122°27'4 8.1
2018-Apr-14 19:00N 47°44' W 122°26'4 8.3
2018-Apr-14 18:30N 47°40' W 122°27'4 7.5
2018-Apr-14 18:00N 47°37' W 122°24'3 5.2
2018-Apr-14 17:30N 47°35' W 122°22'1 2.5
2018-Apr-14 17:00N 47°34' W 122°21'0 0.5
2018-Apr-14 16:30N 47°34' W 122°21'1 2.4
2018-Apr-14 16:00N 47°35' W 122°21'0 0.0
2018-Apr-14 15:30N 47°35' W 122°21'1 1.7
2018-Apr-14 15:00N 47°34' W 122°21'0 0.3
2018-Apr-14 14:30N 47°34' W 122°21'0 0.0
2018-Apr-14 14:00N 47°34' W 122°21'0 0.0
2018-Apr-14 13:30N 47°34' W 122°21'0 0.0
2018-Apr-14 13:00N 47°34' W 122°21'1 1.2
2018-Apr-14 12:29N 47°34' W 122°21'1 1.8
2018-Apr-14 12:00N 47°34' W 122°22'1 2.8
2018-Apr-14 11:30N 47°36' W 122°22'1 1.0
2018-Apr-14 11:00N 47°36' W 122°22'2 4.0
2018-Apr-14 10:30N 47°37' W 122°25'2 4.1
2018-Apr-14 09:59N 47°38' W 122°27'2 4.2
2018-Apr-14 09:30N 47°40' W 122°29'1 2.3
2018-Apr-14 09:00N 47°41' W 122°28'2 3.3
2018-Apr-14 08:30N 47°43' W 122°28'3 5.2
2018-Apr-14 08:00N 47°46' W 122°27'2 5.0
2018-Apr-14 07:30N 47°48' W 122°28'3 5.1
2018-Apr-14 07:00N 47°51' W 122°29'3 5.1
2018-Apr-14 06:30N 47°53' W 122°30'2 4.8
2018-Apr-14 06:00N 47°55' W 122°30'4 4.5
2018-Apr-14 05:07N 47°57' W 122°36'1 3.7
2018-Apr-14 04:52N 47°58' W 122°36'1 3.1
2018-Apr-14 04:30N 47°59' W 122°37'2 2.7
2018-Apr-14 03:56N 48°01' W 122°38'18 3.3
2018-Apr-13 22:35N 48°17' W 122°48'1 5.3
2018-Apr-13 22:29N 48°18' W 122°47'3 5.0
2018-Apr-13 21:55N 48°20' W 122°46'2 4.7
2018-Apr-13 21:28N 48°23' W 122°45'2 3.8
2018-Apr-13 21:00N 48°24' W 122°45'2 3.3
2018-Apr-13 20:30N 48°26' W 122°45'2 3.5
2018-Apr-13 20:00N 48°28' W 122°45'1 3.0
2018-Apr-13 19:30N 48°29' W 122°45'2 3.8
2018-Apr-13 19:00N 48°31' W 122°45'2 4.7
2018-Apr-13 18:30N 48°33' W 122°45'3 5.7
2018-Apr-13 18:00N 48°36' W 122°45'3 6.4
2018-Apr-13 17:30N 48°39' W 122°44'3 5.5
2018-Apr-13 17:00N 48°42' W 122°44'3 5.5
2018-Apr-13 16:28N 48°44' W 122°47'2 5.1
2018-Apr-13 16:00N 48°46' W 122°50'4 4.8
2018-Apr-13 15:10N 48°48' W 122°55'1 4.7
2018-Apr-13 15:00N 48°49' W 122°56'9 4.2
2018-Apr-13 12:50N 48°54' W 123°07'2 3.7
2018-Apr-13 12:23N 48°55' W 123°09'1 3.6
2018-Apr-13 11:59N 48°56' W 123°10'2 3.5
2018-Apr-13 11:30N 48°57' W 123°12'2 3.1
2018-Apr-13 10:58N 48°58' W 123°14'2 3.4
2018-Apr-13 10:27N 48°59' W 123°16'2 3.8
2018-Apr-13 09:55N 49°01' W 123°18'2 3.9
2018-Apr-13 09:29N 49°02' W 123°20'55 5.4
2018-Apr-12 23:21N 49°36' W 124°26'2 5.7
2018-Apr-12 22:59N 49°37' W 124°28'3 5.5
2018-Apr-12 22:22N 49°40' W 124°32'2 0.4
2018-Apr-12 17:20N 49°42' W 124°33'0 0.1
2018-Apr-12 13:50N 49°42' W 124°34'1 2.3
2018-Apr-12 13:29N 49°41' W 124°33'0 0.0
2018-Apr-12 13:00N 49°41' W 124°33'2 3.1
2018-Apr-12 12:30N 49°40' W 124°32'3 4.3
2018-Apr-12 11:51N 49°38' W 124°29'2 4.1
2018-Apr-12 11:27N 49°36' W 124°27'14 3.8
2018-Apr-12 07:37N 49°29' W 124°08'23 4.2
2018-Apr-12 02:02N 49°14' W 123°40'1 3.5
2018-Apr-12 01:53N 49°14' W 123°40'1 3.5
2018-Apr-12 01:30N 49°13' W 123°38'2 3.1
2018-Apr-12 00:58N 49°12' W 123°36'2 3.3
2018-Apr-12 00:30N 49°11' W 123°34'2 3.4
2018-Apr-11 23:59N 49°10' W 123°32'2 3.6
2018-Apr-11 23:30N 49°09' W 123°30'2 4.4
2018-Apr-11 22:58N 49°08' W 123°27'2 4.9
2018-Apr-11 22:30N 49°06' W 123°24'3 5.7
2018-Apr-11 22:00N 49°05' W 123°21'4 7.2
2018-Apr-11 21:30N 49°02' W 123°17'4 7.3
2018-Apr-11 21:00N 48°60' W 123°13'4 7.4
2018-Apr-11 20:30N 48°57' W 123°08'38 6.1
2018-Apr-11 14:16N 48°23' W 122°44'2 6.7
2018-Apr-11 13:57N 48°21' W 122°45'4 6.9
2018-Apr-11 13:25N 48°17' W 122°46'3 7.3
2018-Apr-11 13:00N 48°14' W 122°48'11 8.2
2018-Apr-11 11:37N 48°05' W 122°38'8 8.1
2018-Apr-11 10:35N 47°57' W 122°33'1 7.2
2018-Apr-11 10:29N 47°57' W 122°32'3 6.9
2018-Apr-11 10:00N 47°55' W 122°29'4 7.2
2018-Apr-11 09:30N 47°51' W 122°27'4 7.5
2018-Apr-11 09:00N 47°48' W 122°26'4 7.3
2018-Apr-11 08:30N 47°44' W 122°26'3 7.1
2018-Apr-11 08:00N 47°41' W 122°27'3 6.5
2018-Apr-11 07:30N 47°38' W 122°25'3 5.9
2018-Apr-11 07:00N 47°36' W 122°22'1 1.6
2018-Apr-11 06:29N 47°35' W 122°22'1 2.6
2018-Apr-11 06:00N 47°34' W 122°21'0 0.1
2018-Apr-11 05:30N 47°34' W 122°21'2 3.8
2018-Apr-11 05:00N 47°36' W 122°22'0 0.7
2018-Apr-11 04:30N 47°36' W 122°22'0 0.6
2018-Apr-11 04:00N 47°36' W 122°23'0 0.2
2018-Apr-11 03:30N 47°36' W 122°23'1 1.1
2018-Apr-11 03:00N 47°36' W 122°23'1 2.6
2018-Apr-11 02:30N 47°35' W 122°25'1 2.9
2018-Apr-11 02:00N 47°34' W 122°26'2 3.2
2018-Apr-11 01:30N 47°33' W 122°27'2 3.8
2018-Apr-11 01:00N 47°31' W 122°29'2 3.8
2018-Apr-11 00:30N 47°29' W 122°30'3 6.7
2018-Apr-11 00:00N 47°26' W 122°31'3 6.5
2018-Apr-10 23:30N 47°23' W 122°32'3 6.5
2018-Apr-10 23:00N 47°20' W 122°33'3 6.7
2018-Apr-10 22:30N 47°16' W 122°33'4 7.1
2018-Apr-10 22:00N 47°13' W 122°35'3 6.3
2018-Apr-10 21:30N 47°11' W 122°38'3 5.3
2018-Apr-10 21:00N 47°08' W 122°39'0 0.4
2018-Apr-10 20:30N 47°08' W 122°39'0 0.0
2018-Apr-10 20:00N 47°08' W 122°39'0 0.0
2018-Apr-10 19:29N 47°08' W 122°39'0 0.0
2018-Apr-10 18:59N 47°08' W 122°39'0 0.0
2018-Apr-10 17:38N 47°08' W 122°39'0 0.0
2018-Apr-10 17:28N 47°08' W 122°39'0 0.0
2018-Apr-10 16:59N 47°08' W 122°39'0 0.0
2018-Apr-10 16:25N 47°08' W 122°39'0 0.8
2018-Apr-10 15:53N 47°08' W 122°39'0 0.5
2018-Apr-10 15:28N 47°08' W 122°39'1 0.4
2018-Apr-10 14:20N 47°09' W 122°39'0 0.5
2018-Apr-10 14:00N 47°09' W 122°39'1 1.5
2018-Apr-10 13:30N 47°10' W 122°39'1 1.8
2018-Apr-10 12:59N 47°10' W 122°38'1 1.0
2018-Apr-10 12:29N 47°10' W 122°39'3 5.1
2018-Apr-10 11:58N 47°12' W 122°36'3 5.5
2018-Apr-10 11:30N 47°14' W 122°35'3 5.3
2018-Apr-10 11:00N 47°17' W 122°33'3 5.4
2018-Apr-10 10:30N 47°19' W 122°33'3 6.1
2018-Apr-10 10:00N 47°22' W 122°32'3 5.7
2018-Apr-10 09:30N 47°25' W 122°32'3 5.4
2018-Apr-10 09:00N 47°28' W 122°31'2 4.9
2018-Apr-10 08:30N 47°30' W 122°30'3 5.1
2018-Apr-10 08:00N 47°32' W 122°28'3 5.4
2018-Apr-10 07:30N 47°35' W 122°26'3 5.0
2018-Apr-10 07:00N 47°36' W 122°23'1 2.1
2018-Apr-10 06:30N 47°35' W 122°22'1 2.4
2018-Apr-10 06:00N 47°34' W 122°21'0 0.5
2018-Apr-10 05:30N 47°34' W 122°21'0 0.1
2018-Apr-10 05:00N 47°34' W 122°21'0 0.0
2018-Apr-10 04:30N 47°34' W 122°21'1 2.6
2018-Apr-10 04:00N 47°35' W 122°22'1 2.1
2018-Apr-10 03:30N 47°36' W 122°22'1 2.1
2018-Apr-10 03:00N 47°37' W 122°23'3 6.3
2018-Apr-10 02:30N 47°38' W 122°27'3 5.5
2018-Apr-10 02:00N 47°41' W 122°28'3 6.0
2018-Apr-10 01:30N 47°44' W 122°27'3 6.0
2018-Apr-10 01:00N 47°47' W 122°27'3 6.3
2018-Apr-10 00:30N 47°50' W 122°28'3 5.9
2018-Apr-10 00:00N 47°53' W 122°29'3 5.4
2018-Apr-09 23:30N 47°56' W 122°31'3 5.2
2018-Apr-09 22:59N 47°57' W 122°34'3 4.6
2018-Apr-09 22:25N 47°59' W 122°37'39 5.8
2018-Apr-09 15:40N 48°38' W 122°44'1 6.8
2018-Apr-09 15:30N 48°39' W 122°44'11 5.9
2018-Apr-09 13:41N 48°47' W 122°53'  
Track history (hours):
 
Tides and Currents Weather Stations Pressure Air Temp Water Temp Dewpoint Dewpoint Depression Visibility Wind Speed Wind Dir Waves Ship Positions

Island Mist

Owner: Island Tug & Barge Co., Seattle, WA. More information available from US FCC via Universal Licensing System and Coast Guard Vessel Documentation Center.

Last reported at 2018-Apr-19 13:15 UTC. Time now 2018-Apr-19 21:05 UTC.
Position N 49°41' W 124°34'.

Length 30 m; draft 3 m.

Type: Towing. MMSI: 367670970.

Date/timePositionNaut miles runAvg speedWind from/ knotsBaromVisibWave heightAir tempDewpointWater temp
2018-Apr-19 13:15N 49°41' W 124°34'0 0.3
2018-Apr-19 12:59N 49°41' W 124°34'2 3.2
2018-Apr-19 12:27N 49°40' W 124°33'2 3.7
2018-Apr-19 12:00N 49°39' W 124°31'2 3.8
2018-Apr-19 11:30N 49°37' W 124°29'2 4.0
2018-Apr-19 11:00N 49°36' W 124°27'2 4.3
2018-Apr-19 10:29N 49°35' W 124°24'12 5.3
2018-Apr-19 08:16N 49°29' W 124°08'2 5.9
2018-Apr-19 07:54N 49°27' W 124°05'10 6.5
2018-Apr-19 06:18N 49°21' W 123°53'2 7.0
2018-Apr-19 05:59N 49°19' W 123°51'5 6.9
2018-Apr-19 05:17N 49°16' W 123°45'2 6.8
2018-Apr-19 05:00N 49°15' W 123°42'4 6.9
2018-Apr-19 04:26N 49°13' W 123°37'3 6.8
2018-Apr-19 03:59N 49°11' W 123°34'3 6.8
2018-Apr-19 03:29N 49°09' W 123°29'3 7.2
2018-Apr-19 03:00N 49°07' W 123°25'4 7.3
2018-Apr-19 02:29N 49°05' W 123°21'4 7.3
2018-Apr-19 01:58N 49°02' W 123°17'4 7.8
2018-Apr-19 01:26N 48°59' W 123°12'3 7.7
2018-Apr-19 01:00N 48°57' W 123°08'10 7.6
2018-Apr-18 23:44N 48°51' W 122°57'8 7.1
2018-Apr-18 22:40N 48°46' W 122°48'2 7.1
2018-Apr-18 22:22N 48°45' W 122°45'3 8.0
2018-Apr-18 22:00N 48°42' W 122°43'3 6.7
2018-Apr-18 21:30N 48°39' W 122°43'3 6.1
2018-Apr-18 21:00N 48°36' W 122°45'3 6.0
2018-Apr-18 20:30N 48°33' W 122°45'3 5.0
2018-Apr-18 20:00N 48°31' W 122°44'2 4.7
2018-Apr-18 19:30N 48°28' W 122°44'2 3.9
2018-Apr-18 19:00N 48°26' W 122°44'3 4.9
2018-Apr-18 18:23N 48°23' W 122°44'2 5.8
2018-Apr-18 18:00N 48°21' W 122°45'26 8.0
2018-Apr-18 14:46N 47°57' W 122°32'2 8.8
2018-Apr-18 14:31N 47°55' W 122°29'4 8.6
2018-Apr-18 14:00N 47°51' W 122°27'4 7.6
2018-Apr-18 13:30N 47°47' W 122°26'4 7.5
2018-Apr-18 13:00N 47°44' W 122°26'4 7.1
2018-Apr-18 12:30N 47°40' W 122°27'3 6.8
2018-Apr-18 12:00N 47°37' W 122°24'3 5.8
2018-Apr-18 11:30N 47°35' W 122°22'1 1.9
2018-Apr-18 11:00N 47°34' W 122°21'0 0.7
2018-Apr-18 10:30N 47°34' W 122°21'1 1.0
2018-Apr-18 10:00N 47°33' W 122°21'1 1.9
2018-Apr-18 09:30N 47°34' W 122°21'0 0.6
2018-Apr-18 09:00N 47°34' W 122°21'1 1.8
2018-Apr-18 08:30N 47°35' W 122°21'0 0.0
2018-Apr-18 08:00N 47°35' W 122°21'1 1.9
2018-Apr-18 07:30N 47°34' W 122°21'1 1.3
2018-Apr-18 07:00N 47°34' W 122°21'0 0.5
2018-Apr-18 06:27N 47°34' W 122°21'0 0.0
2018-Apr-18 05:58N 47°34' W 122°21'0 0.3
2018-Apr-18 05:30N 47°34' W 122°21'1 2.0
2018-Apr-18 05:00N 47°35' W 122°22'2 4.3
2018-Apr-18 04:30N 47°36' W 122°25'3 6.3
2018-Apr-18 04:00N 47°33' W 122°27'3 6.7
2018-Apr-18 03:30N 47°30' W 122°29'3 7.0
2018-Apr-18 03:00N 47°27' W 122°31'3 6.8
2018-Apr-18 02:30N 47°23' W 122°32'3 6.1
2018-Apr-18 02:00N 47°20' W 122°33'2 4.5
2018-Apr-18 01:29N 47°18' W 122°33'1 2.3
2018-Apr-18 01:00N 47°17' W 122°32'1 1.3
2018-Apr-18 00:30N 47°16' W 122°33'0 0.9
2018-Apr-18 00:00N 47°16' W 122°33'0 0.8
2018-Apr-17 23:30N 47°16' W 122°33'0 0.8
2018-Apr-17 23:00N 47°15' W 122°34'1 1.2
2018-Apr-17 22:30N 47°15' W 122°34'2 4.0
2018-Apr-17 22:00N 47°13' W 122°35'3 6.4
2018-Apr-17 21:29N 47°10' W 122°39'2 3.7
2018-Apr-17 20:52N 47°08' W 122°39'0 0.7
2018-Apr-17 20:30N 47°08' W 122°39'0 0.6
2018-Apr-17 20:00N 47°09' W 122°38'0 0.0
2018-Apr-17 19:30N 47°09' W 122°38'0 0.0
2018-Apr-17 19:00N 47°09' W 122°38'0 0.0
2018-Apr-17 18:30N 47°09' W 122°38'0 0.0
2018-Apr-17 17:59N 47°09' W 122°38'0 0.0
2018-Apr-17 17:29N 47°09' W 122°38'0 0.0
2018-Apr-17 17:00N 47°09' W 122°38'1 1.1
2018-Apr-17 16:28N 47°08' W 122°39'1 3.0
2018-Apr-17 16:00N 47°10' W 122°39'1 1.7
2018-Apr-17 15:30N 47°10' W 122°38'1 1.5
2018-Apr-17 15:00N 47°11' W 122°38'1 2.6
2018-Apr-17 14:30N 47°12' W 122°36'1 2.8
2018-Apr-17 14:00N 47°13' W 122°35'2 4.0
2018-Apr-17 13:30N 47°15' W 122°34'3 5.2
2018-Apr-17 13:00N 47°17' W 122°32'3 6.7
2018-Apr-17 12:30N 47°20' W 122°33'3 5.5
2018-Apr-17 12:00N 47°23' W 122°32'3 5.7
2018-Apr-17 11:30N 47°26' W 122°32'3 5.8
2018-Apr-17 11:00N 47°29' W 122°30'3 5.7
2018-Apr-17 10:30N 47°31' W 122°29'3 6.3
2018-Apr-17 10:00N 47°34' W 122°26'3 6.1
2018-Apr-17 09:30N 47°36' W 122°23'1 2.5
2018-Apr-17 09:00N 47°35' W 122°22'0 1.0
2018-Apr-17 08:30N 47°35' W 122°22'0 0.1
2018-Apr-17 03:24N 47°34' W 122°21'1 1.3
2018-Apr-17 02:56N 47°34' W 122°21'1 2.9
2018-Apr-17 02:30N 47°35' W 122°22'1 2.9
2018-Apr-17 02:00N 47°36' W 122°22'1 1.5
2018-Apr-17 01:30N 47°37' W 122°23'2 3.9
2018-Apr-17 01:00N 47°38' W 122°26'2 4.9
2018-Apr-17 00:30N 47°40' W 122°28'2 5.0
2018-Apr-17 00:00N 47°42' W 122°28'3 5.0
2018-Apr-16 23:30N 47°45' W 122°27'3 5.4
2018-Apr-16 23:00N 47°47' W 122°27'3 5.9
2018-Apr-16 22:30N 47°50' W 122°28'3 5.9
2018-Apr-16 22:00N 47°53' W 122°30'4 6.0
2018-Apr-16 21:25N 47°56' W 122°32'3 6.9
2018-Apr-16 20:58N 47°58' W 122°36'3 6.4
2018-Apr-16 20:28N 48°01' W 122°38'18 4.6
2018-Apr-16 16:29N 48°18' W 122°48'3 6.5
2018-Apr-16 15:58N 48°21' W 122°46'3 6.7
2018-Apr-16 15:30N 48°24' W 122°45'4 7.1
2018-Apr-16 15:00N 48°28' W 122°44'4 7.2
2018-Apr-16 14:30N 48°31' W 122°45'3 6.7
2018-Apr-16 14:00N 48°35' W 122°45'3 5.9
2018-Apr-16 13:30N 48°38' W 122°45'3 5.3
2018-Apr-16 13:00N 48°40' W 122°44'3 5.1
2018-Apr-16 12:30N 48°43' W 122°45'2 4.6
2018-Apr-16 11:57N 48°45' W 122°47'2 5.3
2018-Apr-16 11:30N 48°46' W 122°50'4 5.3
2018-Apr-16 10:51N 48°48' W 122°55'2 5.7
2018-Apr-16 10:25N 48°50' W 122°57'4 5.3
2018-Apr-16 09:34N 48°52' W 123°03'1 5.6
2018-Apr-16 09:21N 48°52' W 123°05'2 5.6
2018-Apr-16 09:00N 48°53' W 123°07'5 5.8
2018-Apr-16 08:04N 48°57' W 123°14'2 6.6
2018-Apr-16 07:42N 48°58' W 123°17'1 6.8
2018-Apr-16 07:30N 48°59' W 123°18'4 6.9
2018-Apr-16 06:53N 49°02' W 123°23'3 6.9
2018-Apr-16 06:30N 49°05' W 123°25'4 7.4
2018-Apr-16 05:57N 49°09' W 123°24'3 7.3
2018-Apr-16 05:30N 49°12' W 123°22'3 6.4
2018-Apr-16 05:00N 49°15' W 123°20'2 3.9
2018-Apr-16 04:30N 49°15' W 123°18'2 3.1
2018-Apr-16 04:00N 49°15' W 123°15'0 0.1
2018-Apr-16 03:29N 49°15' W 123°15'0 0.1
2018-Apr-16 03:00N 49°15' W 123°15'0 0.1
2018-Apr-16 02:30N 49°15' W 123°15'0 0.0
2018-Apr-16 01:56N 49°15' W 123°15'0 0.0
2018-Apr-16 01:29N 49°15' W 123°15'0 0.1
2018-Apr-16 00:59N 49°15' W 123°15'0 0.0
2018-Apr-16 00:30N 49°15' W 123°15'0 0.1
2018-Apr-15 23:58N 49°15' W 123°15'0 0.1
2018-Apr-15 23:28N 49°15' W 123°15'0 0.1
2018-Apr-15 23:00N 49°15' W 123°15'0 0.0
2018-Apr-15 22:24N 49°15' W 123°15'0 0.1
2018-Apr-15 22:00N 49°15' W 123°15'0 0.0
2018-Apr-15 21:30N 49°15' W 123°15'0 0.0
2018-Apr-15 20:58N 49°15' W 123°15'0 0.1
2018-Apr-15 20:28N 49°15' W 123°15'0 0.1
2018-Apr-15 20:00N 49°15' W 123°15'0 0.1
2018-Apr-15 19:30N 49°15' W 123°15'0 0.0
2018-Apr-15 18:59N 49°15' W 123°15'0 0.1
2018-Apr-15 18:30N 49°15' W 123°15'0 0.1
2018-Apr-15 17:59N 49°15' W 123°15'0 0.1
2018-Apr-15 17:30N 49°15' W 123°15'0 0.1
2018-Apr-15 17:00N 49°15' W 123°15'0 0.0
2018-Apr-15 16:30N 49°15' W 123°15'0 0.0
2018-Apr-15 16:00N 49°15' W 123°15'0 0.1
2018-Apr-15 15:30N 49°15' W 123°15'0 0.0
2018-Apr-15 14:59N 49°15' W 123°15'0 0.0
2018-Apr-15 14:30N 49°15' W 123°15'0 0.0
2018-Apr-15 14:00N 49°15' W 123°15'0 0.0
2018-Apr-15 13:30N 49°15' W 123°15'0 0.1
2018-Apr-15 13:00N 49°15' W 123°15'0 0.0
2018-Apr-15 12:27N 49°15' W 123°15'0 0.0
2018-Apr-15 11:59N 49°15' W 123°15'0 0.0
2018-Apr-15 11:29N 49°15' W 123°15'0 0.1
2018-Apr-15 11:00N 49°15' W 123°15'2 3.7
2018-Apr-15 10:30N 49°15' W 123°18'3 5.5
2018-Apr-15 10:00N 49°12' W 123°19'3 6.7
2018-Apr-15 09:30N 49°09' W 123°20'4 7.0
2018-Apr-15 08:58N 49°05' W 123°21'4 7.2
2018-Apr-15 08:25N 49°02' W 123°18'4 7.2
2018-Apr-15 07:55N 48°59' W 123°14'3 7.3
2018-Apr-15 07:27N 48°58' W 123°09'10 7.5
2018-Apr-15 06:05N 48°51' W 122°57'1 7.8
2018-Apr-15 06:00N 48°51' W 122°57'6 7.5
2018-Apr-15 05:11N 48°47' W 122°50'1 7.7
2018-Apr-15 05:00N 48°46' W 122°48'4 7.5
2018-Apr-15 04:30N 48°43' W 122°44'3 6.8
2018-Apr-15 04:00N 48°40' W 122°42'3 6.8
2018-Apr-15 03:30N 48°37' W 122°44'3 5.8
2018-Apr-15 03:00N 48°34' W 122°45'3 6.7
2018-Apr-15 02:30N 48°31' W 122°44'4 7.3
2018-Apr-15 02:00N 48°27' W 122°44'31 6.1
2018-Apr-14 20:49N 47°57' W 122°32'2 7.0
2018-Apr-14 20:30N 47°56' W 122°29'4 7.4
2018-Apr-14 20:00N 47°52' W 122°27'4 8.1
2018-Apr-14 19:30N 47°48' W 122°27'4 8.1
2018-Apr-14 19:00N 47°44' W 122°26'4 8.3
2018-Apr-14 18:30N 47°40' W 122°27'4 7.5
2018-Apr-14 18:00N 47°37' W 122°24'3 5.2
2018-Apr-14 17:30N 47°35' W 122°22'1 2.5
2018-Apr-14 17:00N 47°34' W 122°21'0 0.5
2018-Apr-14 16:30N 47°34' W 122°21'1 2.4
2018-Apr-14 16:00N 47°35' W 122°21'0 0.0
2018-Apr-14 15:30N 47°35' W 122°21'1 1.7
2018-Apr-14 15:00N 47°34' W 122°21'0 0.3
2018-Apr-14 14:30N 47°34' W 122°21'0 0.0
2018-Apr-14 14:00N 47°34' W 122°21'0 0.0
2018-Apr-14 13:30N 47°34' W 122°21'0 0.0
2018-Apr-14 13:00N 47°34' W 122°21'1 1.2
2018-Apr-14 12:29N 47°34' W 122°21'1 1.8
2018-Apr-14 12:00N 47°34' W 122°22'1 2.8
2018-Apr-14 11:30N 47°36' W 122°22'1 1.0
2018-Apr-14 11:00N 47°36' W 122°22'2 4.0
2018-Apr-14 10:30N 47°37' W 122°25'2 4.1
2018-Apr-14 09:59N 47°38' W 122°27'2 4.2
2018-Apr-14 09:30N 47°40' W 122°29'1 2.3
2018-Apr-14 09:00N 47°41' W 122°28'2 3.3
2018-Apr-14 08:30N 47°43' W 122°28'3 5.2
2018-Apr-14 08:00N 47°46' W 122°27'2 5.0
2018-Apr-14 07:30N 47°48' W 122°28'3 5.1
2018-Apr-14 07:00N 47°51' W 122°29'3 5.1
2018-Apr-14 06:30N 47°53' W 122°30'2 4.8
2018-Apr-14 06:00N 47°55' W 122°30'4 4.5
2018-Apr-14 05:07N 47°57' W 122°36'1 3.7
2018-Apr-14 04:52N 47°58' W 122°36'1 3.1
2018-Apr-14 04:30N 47°59' W 122°37'2 2.7
2018-Apr-14 03:56N 48°01' W 122°38'18 3.3
2018-Apr-13 22:35N 48°17' W 122°48'1 5.3
2018-Apr-13 22:29N 48°18' W 122°47'3 5.0
2018-Apr-13 21:55N 48°20' W 122°46'2 4.7
2018-Apr-13 21:28N 48°23' W 122°45'2 3.8
2018-Apr-13 21:00N 48°24' W 122°45'2 3.3
2018-Apr-13 20:30N 48°26' W 122°45'2 3.5
2018-Apr-13 20:00N 48°28' W 122°45'1 3.0
2018-Apr-13 19:30N 48°29' W 122°45'2 3.8
2018-Apr-13 19:00N 48°31' W 122°45'2 4.7
2018-Apr-13 18:30N 48°33' W 122°45'3 5.7
2018-Apr-13 18:00N 48°36' W 122°45'3 6.4
2018-Apr-13 17:30N 48°39' W 122°44'3 5.5
2018-Apr-13 17:00N 48°42' W 122°44'3 5.5
2018-Apr-13 16:28N 48°44' W 122°47'2 5.1
2018-Apr-13 16:00N 48°46' W 122°50'4 4.8
2018-Apr-13 15:10N 48°48' W 122°55'1 4.7
2018-Apr-13 15:00N 48°49' W 122°56'9 4.2
2018-Apr-13 12:50N 48°54' W 123°07'2 3.7
2018-Apr-13 12:23N 48°55' W 123°09'1 3.6
2018-Apr-13 11:59N 48°56' W 123°10'2 3.5
2018-Apr-13 11:30N 48°57' W 123°12'2 3.1
2018-Apr-13 10:58N 48°58' W 123°14'2 3.4
2018-Apr-13 10:27N 48°59' W 123°16'2 3.8
2018-Apr-13 09:55N 49°01' W 123°18'2 3.9
2018-Apr-13 09:29N 49°02' W 123°20'55 5.4
2018-Apr-12 23:21N 49°36' W 124°26'2 5.7
2018-Apr-12 22:59N 49°37' W 124°28'3 5.5
2018-Apr-12 22:22N 49°40' W 124°32'2 0.4
2018-Apr-12 17:20N 49°42' W 124°33'0 0.1
2018-Apr-12 13:50N 49°42' W 124°34'1 2.3
2018-Apr-12 13:29N 49°41' W 124°33'0 0.0
2018-Apr-12 13:00N 49°41' W 124°33'2 3.1
2018-Apr-12 12:30N 49°40' W 124°32'3 4.3
2018-Apr-12 11:51N 49°38' W 124°29'2 4.1
2018-Apr-12 11:27N 49°36' W 124°27'14 3.8
2018-Apr-12 07:37N 49°29' W 124°08'23 4.2
2018-Apr-12 02:02N 49°14' W 123°40'1 3.5
2018-Apr-12 01:53N 49°14' W 123°40'1 3.5
2018-Apr-12 01:30N 49°13' W 123°38'2 3.1
2018-Apr-12 00:58N 49°12' W 123°36'2 3.3
2018-Apr-12 00:30N 49°11' W 123°34'2 3.4
2018-Apr-11 23:59N 49°10' W 123°32'2 3.6
2018-Apr-11 23:30N 49°09' W 123°30'2 4.4
2018-Apr-11 22:58N 49°08' W 123°27'2 4.9
2018-Apr-11 22:30N 49°06' W 123°24'3 5.7
2018-Apr-11 22:00N 49°05' W 123°21'4 7.2
2018-Apr-11 21:30N 49°02' W 123°17'4 7.3
2018-Apr-11 21:00N 48°60' W 123°13'4 7.4
2018-Apr-11 20:30N 48°57' W 123°08'38 6.1
2018-Apr-11 14:16N 48°23' W 122°44'2 6.7
2018-Apr-11 13:57N 48°21' W 122°45'4 6.9
2018-Apr-11 13:25N 48°17' W 122°46'3 7.3
2018-Apr-11 13:00N 48°14' W 122°48'11 8.2
2018-Apr-11 11:37N 48°05' W 122°38'8 8.1
2018-Apr-11 10:35N 47°57' W 122°33'1 7.2
2018-Apr-11 10:29N 47°57' W 122°32'3 6.9
2018-Apr-11 10:00N 47°55' W 122°29'4 7.2
2018-Apr-11 09:30N 47°51' W 122°27'4 7.5
2018-Apr-11 09:00N 47°48' W 122°26'4 7.3
2018-Apr-11 08:30N 47°44' W 122°26'3 7.1
2018-Apr-11 08:00N 47°41' W 122°27'3 6.5
2018-Apr-11 07:30N 47°38' W 122°25'3 5.9
2018-Apr-11 07:00N 47°36' W 122°22'1 1.6
2018-Apr-11 06:29N 47°35' W 122°22'1 2.6
2018-Apr-11 06:00N 47°34' W 122°21'0 0.1
2018-Apr-11 05:30N 47°34' W 122°21'2 3.8
2018-Apr-11 05:00N 47°36' W 122°22'0 0.7
2018-Apr-11 04:30N 47°36' W 122°22'0 0.6
2018-Apr-11 04:00N 47°36' W 122°23'0 0.2
2018-Apr-11 03:30N 47°36' W 122°23'1 1.1
2018-Apr-11 03:00N 47°36' W 122°23'1 2.6
2018-Apr-11 02:30N 47°35' W 122°25'1 2.9
2018-Apr-11 02:00N 47°34' W 122°26'2 3.2
2018-Apr-11 01:30N 47°33' W 122°27'2 3.8
2018-Apr-11 01:00N 47°31' W 122°29'2 3.8
2018-Apr-11 00:30N 47°29' W 122°30'3 6.7
2018-Apr-11 00:00N 47°26' W 122°31'3 6.5
2018-Apr-10 23:30N 47°23' W 122°32'3 6.5
2018-Apr-10 23:00N 47°20' W 122°33'3 6.7
2018-Apr-10 22:30N 47°16' W 122°33'4 7.1
2018-Apr-10 22:00N 47°13' W 122°35'3 6.3
2018-Apr-10 21:30N 47°11' W 122°38'3 5.3
2018-Apr-10 21:00N 47°08' W 122°39'0 0.4
2018-Apr-10 20:30N 47°08' W 122°39'0 0.0
2018-Apr-10 20:00N 47°08' W 122°39'0 0.0
2018-Apr-10 19:29N 47°08' W 122°39'0 0.0
2018-Apr-10 18:59N 47°08' W 122°39'0 0.0
2018-Apr-10 17:38N 47°08' W 122°39'0 0.0
2018-Apr-10 17:28N 47°08' W 122°39'0 0.0
2018-Apr-10 16:59N 47°08' W 122°39'0 0.0
2018-Apr-10 16:25N 47°08' W 122°39'0 0.8
2018-Apr-10 15:53N 47°08' W 122°39'0 0.5
2018-Apr-10 15:28N 47°08' W 122°39'1 0.4
2018-Apr-10 14:20N 47°09' W 122°39'0 0.5
2018-Apr-10 14:00N 47°09' W 122°39'1 1.5
2018-Apr-10 13:30N 47°10' W 122°39'1 1.8
2018-Apr-10 12:59N 47°10' W 122°38'1 1.0
2018-Apr-10 12:29N 47°10' W 122°39'3 5.1
2018-Apr-10 11:58N 47°12' W 122°36'3 5.5
2018-Apr-10 11:30N 47°14' W 122°35'3 5.3
2018-Apr-10 11:00N 47°17' W 122°33'3 5.4
2018-Apr-10 10:30N 47°19' W 122°33'3 6.1
2018-Apr-10 10:00N 47°22' W 122°32'3 5.7
2018-Apr-10 09:30N 47°25' W 122°32'3 5.4
2018-Apr-10 09:00N 47°28' W 122°31'2 4.9
2018-Apr-10 08:30N 47°30' W 122°30'3 5.1
2018-Apr-10 08:00N 47°32' W 122°28'3 5.4
2018-Apr-10 07:30N 47°35' W 122°26'3 5.0
2018-Apr-10 07:00N 47°36' W 122°23'1 2.1
2018-Apr-10 06:30N 47°35' W 122°22'1 2.4
2018-Apr-10 06:00N 47°34' W 122°21'0 0.5
2018-Apr-10 05:30N 47°34' W 122°21'0 0.1
2018-Apr-10 05:00N 47°34' W 122°21'0 0.0
2018-Apr-10 04:30N 47°34' W 122°21'1 2.6
2018-Apr-10 04:00N 47°35' W 122°22'1 2.1
2018-Apr-10 03:30N 47°36' W 122°22'1 2.1
2018-Apr-10 03:00N 47°37' W 122°23'3 6.3
2018-Apr-10 02:30N 47°38' W 122°27'3 5.5
2018-Apr-10 02:00N 47°41' W 122°28'3 6.0
2018-Apr-10 01:30N 47°44' W 122°27'3 6.0
2018-Apr-10 01:00N 47°47' W 122°27'3 6.3
2018-Apr-10 00:30N 47°50' W 122°28'3 5.9
2018-Apr-10 00:00N 47°53' W 122°29'3 5.4
2018-Apr-09 23:30N 47°56' W 122°31'3 5.2
2018-Apr-09 22:59N 47°57' W 122°34'3 4.6
2018-Apr-09 22:25N 47°59' W 122°37'39 5.8
2018-Apr-09 15:40N 48°38' W 122°44'1 6.8
2018-Apr-09 15:30N 48°39' W 122°44'11 5.9
2018-Apr-09 13:41N 48°47' W 122°53'  

Dump ship's entire track history